Time;durP1;ratioP1;P1;durP2;ratioP2;P2;SDS_P1;SDS_P2;PMS_P1;PMS_P2;Temp;Humidity;BMP_temperature;BMP_pressure;BME280_temperature;BME280_humidity;BME280_pressure;Samples;Min_cycle;Max_cycle;Signal;HPM_P1;HPM_P2
2022/09/07 00:01:01;;;;;;;0.10;0.10;;;;;;;;;;6223916;22;20130;-88
2022/09/07 00:03:28;;;;;;;0.05;0.05;;;;;;;;;;6250106;22;20110;-88
2022/09/07 00:05:54;;;;;;;0.10;0.10;;;;;;;;;;6224871;22;20021;-88
2022/09/07 00:08:21;;;;;;;0.10;0.10;;;;;;;;;;6224403;22;20068;-87
2022/09/07 00:10:55;;;;;;;0.00;0.00;;;;;;;;;;6223952;22;20015;-87
2022/09/07 00:13:22;;;;;;;0.10;0.10;;;;;;;;;;6249545;22;20047;-88
2022/09/07 00:15:48;;;;;;;0.10;0.10;;;;;;;;;;6224703;22;20012;-89
2022/09/07 00:18:14;;;;;;;0.08;0.08;;;;;;;;;;6225192;22;20464;-88
2022/09/07 00:20:40;;;;;;;0.00;0.00;;;;;;;;;;6225697;22;20015;-88
2022/09/07 00:23:06;;;;;;;0.10;0.10;;;;;;;;;;6226695;22;20016;-88
2022/09/07 00:25:37;;;;;;;0.10;0.10;;;;;;;;;;6226274;22;20015;-87
2022/09/07 00:28:03;;;;;;;0.00;0.00;;;;;;;;;;6251284;22;20030;-88
2022/09/07 00:30:29;;;;;;;0.10;0.10;;;;;;;;;;6225133;22;20094;-86
2022/09/07 00:32:55;;;;;;;0.10;0.10;;;;;;;;;;6225527;22;20085;-87
2022/09/07 00:35:21;;;;;;;0.00;0.00;;;;;;;;;;6225598;22;20458;-85
2022/09/07 00:37:47;;;;;;;0.00;0.00;;;;;;;;;;6225443;22;20043;-86
2022/09/07 00:40:13;;;;;;;0.03;0.03;;;;;;;;;;6225002;22;20318;-86
2022/09/07 00:42:39;;;;;;;0.10;0.10;;;;;;;;;;6225732;22;20099;-85
2022/09/07 00:45:11;;;;;;;0.10;0.10;;;;;;;;;;6225414;22;20015;-86
2022/09/07 00:47:40;;;;;;;0.00;0.00;;;;;;;;;;6225806;22;20015;-86
2022/09/07 00:50:21;;;;;;;0.00;0.00;;;;;;;;;;6224760;22;20015;-86
2022/09/07 00:52:50;;;;;;;0.00;0.00;;;;;;;;;;6225342;22;20012;-86
2022/09/07 00:55:16;;;;;;;0.10;0.10;;;;;;;;;;6225759;22;20012;-87
2022/09/07 00:57:45;;;;;;;0.10;0.10;;;;;;;;;;6225762;22;20054;-87
2022/09/07 01:00:11;;;;;;;0.00;0.00;;;;;;;;;;6225324;22;20365;-88
2022/09/07 01:02:38;;;;;;;0.10;0.10;;;;;;;;;;6226160;22;20081;-88
2022/09/07 01:05:10;;;;;;;0.10;0.10;;;;;;;;;;6226215;22;20054;-87
2022/09/07 01:07:36;;;;;;;0.00;0.00;;;;;;;;;;6251131;22;20781;-88
2022/09/07 01:10:02;;;;;;;0.00;0.00;;;;;;;;;;6225161;22;20012;-87
2022/09/07 01:12:28;;;;;;;0.10;0.10;;;;;;;;;;6225855;22;20011;-87
2022/09/07 01:14:55;;;;;;;0.10;0.10;;;;;;;;;;6225819;22;20027;-87
2022/09/07 01:17:21;;;;;;;0.10;0.10;;;;;;;;;;6225387;22;20015;-87
2022/09/07 01:19:50;;;;;;;0.00;0.00;;;;;;;;;;6225311;22;20460;-88
2022/09/07 01:22:25;;;;;;;0.20;0.20;;;;;;;;;;6225823;22;20026;-87
2022/09/07 01:24:51;;;;;;;0.10;0.10;;;;;;;;;;6225916;22;20019;-90
2022/09/07 01:27:29;;;;;;;0.15;0.15;;;;;;;;;;6226168;22;20015;-90
2022/09/07 01:29:59;;;;;;;0.20;0.20;;;;;;;;;;6225150;22;20027;-88
2022/09/07 01:32:35;;;;;;;0.10;0.10;;;;;;;;;;6226176;22;20011;-87
2022/09/07 01:35:02;;;;;;;0.10;0.10;;;;;;;;;;6225798;22;20058;-89
2022/09/07 01:37:28;;;;;;;0.10;0.10;;;;;;;;;;6225657;22;20016;-90
2022/09/07 01:40:06;;;;;;;0.10;0.10;;;;;;;;;;6225295;22;20027;-88
2022/09/07 01:42:36;;;;;;;0.10;0.10;;;;;;;;;;6226135;22;20027;-90
2022/09/07 01:45:10;;;;;;;0.10;0.10;;;;;;;;;;6225644;22;20020;-89
2022/09/07 01:47:56;;;;;;;0.20;0.20;;;;;;;;;;6225936;22;20078;-88
2022/09/07 01:50:33;;;;;;;0.10;0.10;;;;;;;;;;6225349;22;20020;-88
2022/09/07 01:53:02;;;;;;;0.00;0.00;;;;;;;;;;6225454;22;20023;-89
2022/09/07 01:55:33;;;;;;;0.00;0.00;;;;;;;;;;6225816;22;20384;-88
2022/09/07 01:58:01;;;;;;;0.08;0.08;;;;;;;;;;6225738;22;20445;-88
2022/09/07 02:00:28;;;;;;;0.10;0.10;;;;;;;;;;6224686;22;20022;-88
2022/09/07 02:03:03;;;;;;;0.20;0.20;;;;;;;;;;6225264;22;20018;-87
2022/09/07 02:05:38;;;;;;;0.10;0.10;;;;;;;;;;6225596;22;20353;-88
2022/09/07 02:08:17;;;;;;;0.10;0.10;;;;;;;;;;6250719;22;20023;-87
2022/09/07 02:10:47;;;;;;;0.20;0.20;;;;;;;;;;6224543;22;20012;-88
2022/09/07 02:13:19;;;;;;;0.20;0.20;;;;;;;;;;6225125;22;20030;-87
2022/09/07 02:15:48;;;;;;;0.10;0.10;;;;;;;;;;6225384;22;20018;-88
2022/09/07 02:18:14;;;;;;;0.00;0.00;;;;;;;;;;6225215;22;20066;-87
2022/09/07 02:20:43;;;;;;;0.10;0.10;;;;;;;;;;6224678;22;20207;-87
2022/09/07 02:23:13;;;;;;;0.10;0.10;;;;;;;;;;6225348;22;20012;-88
2022/09/07 02:25:41;;;;;;;0.30;0.30;;;;;;;;;;6250661;22;20012;-88
2022/09/07 02:28:09;;;;;;;0.10;0.10;;;;;;;;;;6225002;22;20018;-87
2022/09/07 02:30:35;;;;;;;0.10;0.10;;;;;;;;;;6224513;22;20084;-89
2022/09/07 02:33:01;;;;;;;0.20;0.20;;;;;;;;;;6225169;22;20020;-88
2022/09/07 02:35:27;;;;;;;0.10;0.10;;;;;;;;;;6225310;22;20022;-88
2022/09/07 02:37:54;;;;;;;0.13;0.13;;;;;;;;;;6225231;22;20064;-89
2022/09/07 02:40:20;;;;;;;0.05;0.05;;;;;;;;;;6224503;22;20400;-88
2022/09/07 02:42:46;;;;;;;0.10;0.10;;;;;;;;;;6225249;22;20051;-89
2022/09/07 02:45:13;;;;;;;0.10;0.10;;;;;;;;;;6225300;22;20020;-88
2022/09/07 02:47:54;;;;;;;0.00;0.00;;;;;;;;;;6250460;22;20038;-89
2022/09/07 02:50:29;;;;;;;0.10;0.10;;;;;;;;;;6224430;22;20027;-88
2022/09/07 02:53:10;;;;;;;0.03;0.03;;;;;;;;;;6225248;22;20016;-89
2022/09/07 02:55:45;;;;;;;0.10;0.10;;;;;;;;;;6225037;22;20011;-88
2022/09/07 02:58:31;;;;;;;0.00;0.00;;;;;;;;;;6225225;22;20054;-88
2022/09/07 03:01:06;;;;;;;0.00;0.00;;;;;;;;;;6224379;22;20043;-88
2022/09/07 03:03:45;;;;;;;0.10;0.10;;;;;;;;;;6225091;22;20018;-88
2022/09/07 03:06:26;;;;;;;0.00;0.00;;;;;;;;;;6224915;22;20414;-88
2022/09/07 03:08:54;;;;;;;0.10;0.10;;;;;;;;;;6224547;22;20326;-88
2022/09/07 03:11:20;;;;;;;0.20;0.20;;;;;;;;;;6224898;22;20062;-89
2022/09/07 03:13:46;;;;;;;0.10;0.10;;;;;;;;;;6225072;22;20094;-89
2022/09/07 03:16:13;;;;;;;0.10;0.10;;;;;;;;;;6225120;22;20090;-89
2022/09/07 03:18:39;;;;;;;0.10;0.10;;;;;;;;;;6225065;22;20019;-89
2022/09/07 03:21:05;;;;;;;0.10;0.10;;;;;;;;;;6224229;22;20137;-88
2022/09/07 03:23:32;;;;;;;0.10;0.10;;;;;;;;;;6224812;22;20523;-89
2022/09/07 03:25:58;;;;;;;0.10;0.10;;;;;;;;;;6224966;22;20016;-89
2022/09/07 03:28:24;;;;;;;0.20;0.20;;;;;;;;;;6224899;22;20514;-88
2022/09/07 03:30:50;;;;;;;0.10;0.10;;;;;;;;;;6224559;22;20022;-88
2022/09/07 03:33:16;;;;;;;0.00;0.00;;;;;;;;;;6250198;22;20353;-88
2022/09/07 03:35:43;;;;;;;0.10;0.10;;;;;;;;;;6225051;22;20016;-88
2022/09/07 03:38:09;;;;;;;0.10;0.10;;;;;;;;;;6224866;22;20023;-88
2022/09/07 03:40:35;;;;;;;0.00;0.00;;;;;;;;;;6249803;22;20448;-89
2022/09/07 03:43:01;;;;;;;0.20;0.20;;;;;;;;;;6224777;22;20058;-88
2022/09/07 03:45:27;;;;;;;0.20;0.20;;;;;;;;;;6225019;22;20016;-89
2022/09/07 03:47:53;;;;;;;0.10;0.10;;;;;;;;;;6224694;22;20019;-89
2022/09/07 03:50:19;;;;;;;0.10;0.10;;;;;;;;;;6224265;22;20016;-89
2022/09/07 03:52:45;;;;;;;0.10;0.10;;;;;;;;;;6225448;22;20414;-89
2022/09/07 03:55:11;;;;;;;0.00;0.00;;;;;;;;;;6226974;22;20437;-89
2022/09/07 03:57:39;;;;;;;0.13;0.13;;;;;;;;;;6227181;22;20031;-89
2022/09/07 04:00:05;;;;;;;0.10;0.10;;;;;;;;;;6226513;22;20027;-89
2022/09/07 04:02:53;;;;;;;0.10;0.10;;;;;;;;;;6224752;22;20016;-89
2022/09/07 04:05:19;;;;;;;0.20;0.20;;;;;;;;;;6226296;22;20445;-89
2022/09/07 04:07:47;;;;;;;0.10;0.10;;;;;;;;;;6226030;22;20073;-89
2022/09/07 04:10:13;;;;;;;0.10;0.10;;;;;;;;;;6225357;22;20012;-88
2022/09/07 04:12:39;;;;;;;0.00;0.00;;;;;;;;;;6225985;22;20066;-89
2022/09/07 04:15:05;;;;;;;0.20;0.20;;;;;;;;;;6225954;22;20012;-88
2022/09/07 04:17:31;;;;;;;0.10;0.10;;;;;;;;;;6225803;22;20051;-88
2022/09/07 04:19:57;;;;;;;0.03;0.03;;;;;;;;;;6225372;22;20035;-89
2022/09/07 04:22:23;;;;;;;0.20;0.20;;;;;;;;;;6225888;22;20021;-87
2022/09/07 04:24:49;;;;;;;0.00;0.00;;;;;;;;;;6225662;22;20094;-88
2022/09/07 04:27:15;;;;;;;0.10;0.10;;;;;;;;;;6225753;22;20015;-89
2022/09/07 04:29:41;;;;;;;0.20;0.20;;;;;;;;;;6225127;22;20381;-88
2022/09/07 04:32:07;;;;;;;0.10;0.10;;;;;;;;;;6225616;22;20022;-88
2022/09/07 04:34:33;;;;;;;0.10;0.10;;;;;;;;;;6225755;22;20012;-88
2022/09/07 04:36:59;;;;;;;0.10;0.10;;;;;;;;;;6225616;22;20258;-88
2022/09/07 04:39:25;;;;;;;0.10;0.10;;;;;;;;;;6250172;22;20106;-87
2022/09/07 04:41:53;;;;;;;0.20;0.20;;;;;;;;;;6225733;22;20024;-88
2022/09/07 04:44:19;;;;;;;0.10;0.10;;;;;;;;;;6225576;22;20073;-88
2022/09/07 04:46:45;;;;;;;0.10;0.10;;;;;;;;;;6225165;22;20027;-88
2022/09/07 04:49:12;;;;;;;0.10;0.10;;;;;;;;;;6224959;22;20103;-88
2022/09/07 04:51:41;;;;;;;0.10;0.10;;;;;;;;;;6225421;22;20410;-88
2022/09/07 04:54:07;;;;;;;0.10;0.10;;;;;;;;;;6225198;22;20408;-88
2022/09/07 04:56:33;;;;;;;0.10;0.10;;;;;;;;;;6225294;22;20011;-88
2022/09/07 04:59:00;;;;;;;0.10;0.10;;;;;;;;;;6224895;22;20027;-88
2022/09/07 05:01:26;;;;;;;0.10;0.10;;;;;;;;;;6224941;22;20015;-88
2022/09/07 05:03:53;;;;;;;0.00;0.00;;;;;;;;;;6224945;22;20019;-88
2022/09/07 05:06:20;;;;;;;0.00;0.00;;;;;;;;;;6224735;22;20073;-88
2022/09/07 05:08:47;;;;;;;0.10;0.10;;;;;;;;;;6224778;22;20020;-88
2022/09/07 05:11:14;;;;;;;0.05;0.05;;;;;;;;;;6225441;22;20069;-88
2022/09/07 05:13:40;;;;;;;0.00;0.00;;;;;;;;;;6225010;22;20841;-88
2022/09/07 05:16:16;;;;;;;0.03;0.03;;;;;;;;;;6225132;22;20022;-87
2022/09/07 05:18:42;;;;;;;0.10;0.10;;;;;;;;;;6224971;22;20445;-87
2022/09/07 05:21:09;;;;;;;0.10;0.10;;;;;;;;;;6224763;22;20019;-88
2022/09/07 05:23:35;;;;;;;0.03;0.03;;;;;;;;;;6225257;22;20023;-88
2022/09/07 05:26:01;;;;;;;0.10;0.10;;;;;;;;;;6250695;22;20058;-88
2022/09/07 05:28:27;;;;;;;0.10;0.10;;;;;;;;;;6224795;22;20102;-88
2022/09/07 05:30:53;;;;;;;0.10;0.10;;;;;;;;;;6224563;22;20051;-88
2022/09/07 05:33:19;;;;;;;0.00;0.00;;;;;;;;;;6225168;22;20054;-87
2022/09/07 05:35:55;;;;;;;0.05;0.05;;;;;;;;;;6225120;22;20461;-88
2022/09/07 05:38:21;;;;;;;0.10;0.10;;;;;;;;;;6224967;22;20503;-90
2022/09/07 05:40:47;;;;;;;0.10;0.10;;;;;;;;;;6224058;22;20055;-86
2022/09/07 05:43:13;;;;;;;0.00;0.00;;;;;;;;;;6224205;22;20022;-86
2022/09/07 05:45:39;;;;;;;0.10;0.10;;;;;;;;;;6224040;22;20449;-86
2022/09/07 05:48:05;;;;;;;0.20;0.20;;;;;;;;;;6224021;22;20012;-85
2022/09/07 05:50:31;;;;;;;0.10;0.10;;;;;;;;;;6223206;22;20020;-85
2022/09/07 05:52:58;;;;;;;0.10;0.10;;;;;;;;;;6249373;22;20065;-86
2022/09/07 05:55:24;;;;;;;0.10;0.10;;;;;;;;;;6223830;22;20015;-86
2022/09/07 05:57:50;;;;;;;0.10;0.10;;;;;;;;;;6224087;22;20446;-86
2022/09/07 06:00:16;;;;;;;0.10;0.10;;;;;;;;;;6223184;22;20022;-86
2022/09/07 06:02:42;;;;;;;0.10;0.10;;;;;;;;;;6223571;22;20112;-86
2022/09/07 06:05:09;;;;;;;0.10;0.10;;;;;;;;;;6223807;22;20023;-85
2022/09/07 06:07:36;;;;;;;0.10;0.10;;;;;;;;;;6224105;22;20016;-86
2022/09/07 06:10:02;;;;;;;0.00;0.00;;;;;;;;;;6223301;22;20020;-86
2022/09/07 06:12:28;;;;;;;0.10;0.10;;;;;;;;;;6223790;22;20473;-86
2022/09/07 06:14:54;;;;;;;0.10;0.10;;;;;;;;;;6249172;22;20016;-86
2022/09/07 06:17:20;;;;;;;0.10;0.10;;;;;;;;;;6249053;22;20341;-87
2022/09/07 06:19:46;;;;;;;0.10;0.10;;;;;;;;;;6223666;22;20030;-84
2022/09/07 06:22:13;;;;;;;0.20;0.20;;;;;;;;;;6238350;22;20027;-86
2022/09/07 06:24:46;;;;;;;0.10;0.10;;;;;;;;;;6223272;22;20019;-85
2022/09/07 06:27:12;;;;;;;0.10;0.10;;;;;;;;;;6248812;22;20019;-86
2022/09/07 06:29:38;;;;;;;0.10;0.10;;;;;;;;;;6247852;22;20015;-84
2022/09/07 06:32:04;;;;;;;0.10;0.10;;;;;;;;;;6223168;22;20345;-85
2022/09/07 06:34:30;;;;;;;0.10;0.10;;;;;;;;;;6223197;22;20094;-85
2022/09/07 06:36:56;;;;;;;0.10;0.10;;;;;;;;;;6248710;22;20074;-84
2022/09/07 06:39:22;;;;;;;0.10;0.10;;;;;;;;;;6248024;22;20102;-85
2022/09/07 06:41:48;;;;;;;0.10;0.10;;;;;;;;;;6248481;22;20109;-84
2022/09/07 06:44:14;;;;;;;0.10;0.10;;;;;;;;;;6223086;22;20023;-86
2022/09/07 06:46:40;;;;;;;0.10;0.10;;;;;;;;;;6223318;22;20069;-87
2022/09/07 06:49:06;;;;;;;0.10;0.10;;;;;;;;;;6222827;22;20061;-85
2022/09/07 06:51:32;;;;;;;0.10;0.10;;;;;;;;;;6248482;22;20051;-84
2022/09/07 06:54:00;;;;;;;0.10;0.10;;;;;;;;;;6223252;22;20038;-84
2022/09/07 06:56:27;;;;;;;0.08;0.08;;;;;;;;;;6223128;22;20066;-83
2022/09/07 06:58:57;;;;;;;0.10;0.10;;;;;;;;;;6222569;22;20016;-87
2022/09/07 07:01:24;;;;;;;0.10;0.10;;;;;;;;;;6223115;22;20445;-86
2022/09/07 07:03:50;;;;;;;0.00;0.00;;;;;;;;;;6223109;22;20034;-87
2022/09/07 07:06:16;;;;;;;0.05;0.05;;;;;;;;;;6223429;22;20058;-85
2022/09/07 07:08:43;;;;;;;0.00;0.00;;;;;;;;;;6248417;22;20081;-87
2022/09/07 07:11:10;;;;;;;0.10;0.10;;;;;;;;;;6221657;22;20020;-86
2022/09/07 07:13:36;;;;;;;0.10;0.10;;;;;;;;;;6222737;22;20054;-87
2022/09/07 07:16:07;;;;;;;0.10;0.10;;;;;;;;;;6222226;22;20038;-89
2022/09/07 07:18:33;;;;;;;0.00;0.00;;;;;;;;;;6222669;22;20759;-90
2022/09/07 07:21:03;;;;;;;0.10;0.10;;;;;;;;;;6222067;22;20023;-86
2022/09/07 07:23:30;;;;;;;0.10;0.10;;;;;;;;;;6222807;22;20023;-86
2022/09/07 07:26:26;;;;;;;0.20;0.20;;;;;;;;;;6221700;22;20019;-86
2022/09/07 07:28:53;;;;;;;0.15;0.15;;;;;;;;;;6215337;22;20031;-84
2022/09/07 07:31:20;;;;;;;0.10;0.10;;;;;;;;;;6222571;22;20445;-84
2022/09/07 07:33:47;;;;;;;0.00;0.00;;;;;;;;;;6222568;22;20019;-84
2022/09/07 07:36:15;;;;;;;0.00;0.00;;;;;;;;;;6248006;22;20041;-85
2022/09/07 07:38:42;;;;;;;0.10;0.10;;;;;;;;;;6222813;22;20019;-85
2022/09/07 07:41:09;;;;;;;0.00;0.00;;;;;;;;;;6220973;22;20145;-84
2022/09/07 07:43:35;;;;;;;0.03;0.03;;;;;;;;;;6222725;22;20023;-85
2022/09/07 07:46:01;;;;;;;0.10;0.10;;;;;;;;;;6222916;22;20015;-85
2022/09/07 07:48:27;;;;;;;0.10;0.10;;;;;;;;;;6222643;22;20475;-85
2022/09/07 07:51:00;;;;;;;0.10;0.10;;;;;;;;;;6221840;22;20012;-84
2022/09/07 07:53:27;;;;;;;0.10;0.10;;;;;;;;;;6222751;22;20019;-85
2022/09/07 07:55:53;;;;;;;0.10;0.10;;;;;;;;;;6223157;22;20020;-85
2022/09/07 07:58:20;;;;;;;0.10;0.10;;;;;;;;;;6222747;22;20011;-84
2022/09/07 08:00:46;;;;;;;0.10;0.10;;;;;;;;;;6221459;22;20066;-84
2022/09/07 08:03:12;;;;;;;0.03;0.03;;;;;;;;;;6222208;22;20445;-84
2022/09/07 08:05:38;;;;;;;0.10;0.10;;;;;;;;;;6220520;22;20015;-85
2022/09/07 08:08:04;;;;;;;0.10;0.10;;;;;;;;;;6222949;22;20050;-84
2022/09/07 08:10:30;;;;;;;0.10;0.10;;;;;;;;;;6221956;22;20020;-84
2022/09/07 08:12:56;;;;;;;0.10;0.10;;;;;;;;;;6222713;22;20023;-84
2022/09/07 08:15:22;;;;;;;0.00;0.00;;;;;;;;;;6222724;22;20012;-83
2022/09/07 08:17:49;;;;;;;0.10;0.10;;;;;;;;;;6222660;22;20020;-84
2022/09/07 08:20:16;;;;;;;0.10;0.10;;;;;;;;;;6247276;22;20015;-83
2022/09/07 08:22:42;;;;;;;0.10;0.10;;;;;;;;;;6222489;22;20024;-86
2022/09/07 08:25:08;;;;;;;0.13;0.13;;;;;;;;;;6222485;22;20457;-86
2022/09/07 08:27:35;;;;;;;0.13;0.13;;;;;;;;;;6222363;22;20074;-86
2022/09/07 08:30:01;;;;;;;0.10;0.10;;;;;;;;;;6221924;22;20094;-86
2022/09/07 08:32:30;;;;;;;0.00;0.00;;;;;;;;;;6222035;22;20383;-86
2022/09/07 08:34:57;;;;;;;0.20;0.20;;;;;;;;;;6222888;22;20022;-87
2022/09/07 08:37:25;;;;;;;0.10;0.10;;;;;;;;;;6221764;22;20012;-86
2022/09/07 08:39:51;;;;;;;0.10;0.10;;;;;;;;;;6222084;22;20024;-87
2022/09/07 08:42:17;;;;;;;0.03;0.03;;;;;;;;;;6221331;22;20460;-86
2022/09/07 08:44:46;;;;;;;0.10;0.10;;;;;;;;;;6223295;22;20015;-86
2022/09/07 08:47:32;;;;;;;0.00;0.00;;;;;;;;;;6224116;22;20016;-86
2022/09/07 08:50:05;;;;;;;0.03;0.03;;;;;;;;;;6223511;22;20098;-86
2022/09/07 08:52:50;;;;;;;0.10;0.10;;;;;;;;;;6224076;22;20458;-86
2022/09/07 08:55:19;;;;;;;0.00;0.00;;;;;;;;;;6224368;22;20387;-86
2022/09/07 08:57:48;;;;;;;0.40;0.40;;;;;;;;;;6224548;22;20019;-86
2022/09/07 09:00:16;;;;;;;0.10;0.10;;;;;;;;;;6248865;22;20016;-85
2022/09/07 09:02:42;;;;;;;0.10;0.10;;;;;;;;;;6224313;22;20019;-86
2022/09/07 09:05:34;;;;;;;0.20;0.20;;;;;;;;;;6224363;22;20023;-87
2022/09/07 09:08:17;;;;;;;0.00;0.00;;;;;;;;;;6222353;22;20016;-86
2022/09/07 09:10:48;;;;;;;0.00;0.00;;;;;;;;;;6222633;22;20065;-86
2022/09/07 09:13:19;;;;;;;0.20;0.20;;;;;;;;;;6224271;22;20016;-87
2022/09/07 09:15:50;;;;;;;0.10;0.10;;;;;;;;;;6224312;22;20062;-86
2022/09/07 09:18:22;;;;;;;0.10;0.10;;;;;;;;;;6224048;22;20015;-86
2022/09/07 09:20:48;;;;;;;0.10;0.10;;;;;;;;;;6249120;22;20015;-86
2022/09/07 09:23:16;;;;;;;0.00;0.00;;;;;;;;;;6224288;22;20011;-86
2022/09/07 09:25:46;;;;;;;0.00;0.00;;;;;;;;;;6224598;22;20387;-87
2022/09/07 09:28:12;;;;;;;0.10;0.10;;;;;;;;;;6224182;22;20433;-87
2022/09/07 09:30:38;;;;;;;0.10;0.10;;;;;;;;;;6223632;22;20089;-86
2022/09/07 09:33:31;;;;;;;0.10;0.10;;;;;;;;;;6224002;22;20457;-86
2022/09/07 09:35:59;;;;;;;0.08;0.08;;;;;;;;;;6224001;22;20462;-86
2022/09/07 09:38:28;;;;;;;0.00;0.00;;;;;;;;;;6221314;22;20016;-86
2022/09/07 09:40:55;;;;;;;0.20;0.20;;;;;;;;;;6223607;22;20011;-86
2022/09/07 09:43:24;;;;;;;0.10;0.10;;;;;;;;;;6223671;22;20015;-87
2022/09/07 09:45:52;;;;;;;0.10;0.10;;;;;;;;;;6223516;22;20038;-87
2022/09/07 09:48:19;;;;;;;0.00;0.00;;;;;;;;;;6223187;22;20492;-87
2022/09/07 09:50:47;;;;;;;0.03;0.03;;;;;;;;;;6222701;22;20016;-86
2022/09/07 09:53:33;;;;;;;0.10;0.10;;;;;;;;;;6223931;22;20334;-87
2022/09/07 09:56:00;;;;;;;0.10;0.10;;;;;;;;;;6249232;22;20349;-86
2022/09/07 09:58:30;;;;;;;0.00;0.00;;;;;;;;;;6248303;22;20022;-86
2022/09/07 10:01:16;;;;;;;0.03;0.03;;;;;;;;;;6223352;22;20012;-87
2022/09/07 10:03:42;;;;;;;0.10;0.10;;;;;;;;;;6217649;22;20020;-86
2022/09/07 10:06:14;;;;;;;0.10;0.10;;;;;;;;;;6222912;22;20031;-87
2022/09/07 10:08:50;;;;;;;0.10;0.10;;;;;;;;;;6223267;22;20015;-87
2022/09/07 10:11:16;;;;;;;0.10;0.10;;;;;;;;;;6223021;22;20030;-87
2022/09/07 10:13:45;;;;;;;0.00;0.00;;;;;;;;;;6223288;22;20357;-87
2022/09/07 10:16:11;;;;;;;0.08;0.08;;;;;;;;;;6222962;22;20055;-87
2022/09/07 10:18:38;;;;;;;0.00;0.00;;;;;;;;;;6222840;22;20141;-87
2022/09/07 10:21:23;;;;;;;0.10;0.10;;;;;;;;;;6222736;22;20012;-87
2022/09/07 10:23:52;;;;;;;0.00;0.00;;;;;;;;;;6223299;22;20093;-87
2022/09/07 10:26:20;;;;;;;0.00;0.00;;;;;;;;;;6222957;22;20455;-87
2022/09/07 10:28:46;;;;;;;0.08;0.08;;;;;;;;;;6223220;22;20023;-87
2022/09/07 10:31:17;;;;;;;0.08;0.08;;;;;;;;;;6223739;22;20011;-86
2022/09/07 10:34:07;;;;;;;0.05;0.05;;;;;;;;;;6223748;22;20016;-87
2022/09/07 10:36:40;;;;;;;0.00;0.00;;;;;;;;;;6223961;22;20449;-86
2022/09/07 10:39:07;;;;;;;0.15;0.15;;;;;;;;;;6222794;22;20105;-87
2022/09/07 10:41:40;;;;;;;0.00;0.00;;;;;;;;;;6223560;22;20054;-87
2022/09/07 10:44:10;;;;;;;0.05;0.05;;;;;;;;;;6223375;22;20510;-86
2022/09/07 10:46:50;;;;;;;0.00;0.00;;;;;;;;;;6223728;22;20015;-87
2022/09/07 10:49:19;;;;;;;0.10;0.10;;;;;;;;;;6223056;22;20453;-87
2022/09/07 10:51:48;;;;;;;0.08;0.08;;;;;;;;;;6223807;22;20012;-87
2022/09/07 10:54:20;;;;;;;0.10;0.10;;;;;;;;;;6223312;22;20116;-86
2022/09/07 10:57:03;;;;;;;0.00;0.00;;;;;;;;;;6221690;22;20429;-86
2022/09/07 10:59:42;;;;;;;0.03;0.03;;;;;;;;;;6217617;22;20469;-85
2022/09/07 11:02:14;;;;;;;0.00;0.00;;;;;;;;;;6223006;22;20015;-86
2022/09/07 11:04:48;;;;;;;0.10;0.10;;;;;;;;;;6222826;22;20352;-85
2022/09/07 11:07:20;;;;;;;0.00;0.00;;;;;;;;;;6222697;22;20058;-85
2022/09/07 11:09:58;;;;;;;0.03;0.03;;;;;;;;;;6222196;22;20575;-84
2022/09/07 11:12:33;;;;;;;0.10;0.10;;;;;;;;;;6223076;22;20069;-86
2022/09/07 11:14:59;;;;;;;;;;;;;;;;;;6225535;22;20098;-92
2022/09/07 11:17:27;;;;;;;0.13;0.13;;;;;;;;;;6224243;22;19938;-92
2022/09/07 11:19:56;;;;;;;0.00;0.00;;;;;;;;;;6223932;22;20019;-91
2022/09/07 11:22:41;;;;;;;0.00;0.00;;;;;;;;;;6224158;22;20031;-88
2022/09/07 11:25:25;;;;;;;0.10;0.10;;;;;;;;;;6224535;22;20399;-90
2022/09/07 11:27:55;;;;;;;0.10;0.10;;;;;;;;;;6225642;22;20445;-89
2022/09/07 11:30:23;;;;;;;0.00;0.00;;;;;;;;;;6224241;22;20023;-92
2022/09/07 11:32:55;;;;;;;0.10;0.10;;;;;;;;;;6223905;22;20090;-91
2022/09/07 11:35:34;;;;;;;0.08;0.08;;;;;;;;;;6223430;22;20023;-89
2022/09/07 11:38:04;;;;;;;0.10;0.10;;;;;;;;;;6224530;22;20023;-92
2022/09/07 11:40:41;;;;;;;0.00;0.00;;;;;;;;;;6225541;22;20015;-92
2022/09/07 11:43:24;;;;;;;0.00;0.00;;;;;;;;;;6226354;22;20051;-93
2022/09/07 11:46:03;;;;;;;0.10;0.10;;;;;;;;;;6225552;22;20449;-92
2022/09/07 11:48:29;;;;;;;0.10;0.10;;;;;;;;;;6224198;22;20413;-89
2022/09/07 11:50:58;;;;;;;0.00;0.00;;;;;;;;;;6224819;22;20012;-87
2022/09/07 11:53:27;;;;;;;0.08;0.08;;;;;;;;;;6224521;22;20345;-86
2022/09/07 11:55:58;;;;;;;0.00;0.00;;;;;;;;;;6223645;22;20016;-88
2022/09/07 11:58:37;;;;;;;0.00;0.00;;;;;;;;;;6223737;22;20349;-88
2022/09/07 12:01:21;;;;;;;0.00;0.00;;;;;;;;;;6248098;22;20008;-86
2022/09/07 12:03:53;;;;;;;0.00;0.00;;;;;;;;;;6248949;22;20341;-89
2022/09/07 12:06:35;;;;;;;0.10;0.10;;;;;;;;;;6224128;22;20020;-87
2022/09/07 12:09:19;;;;;;;0.00;0.00;;;;;;;;;;6248938;22;20066;-87
2022/09/07 12:11:51;;;;;;;0.00;0.00;;;;;;;;;;6223340;22;20504;-87
2022/09/07 12:14:36;;;;;;;0.00;0.00;;;;;;;;;;6224695;22;20012;-87
2022/09/07 12:17:24;;;;;;;0.10;0.10;;;;;;;;;;6226043;22;20027;-88
2022/09/07 12:20:09;;;;;;;0.00;0.00;;;;;;;;;;6225250;22;20023;-86
2022/09/07 12:22:35;;;;;;;0.10;0.10;;;;;;;;;;6225797;22;20349;-88
2022/09/07 12:25:07;;;;;;;0.10;0.10;;;;;;;;;;6225716;22;20349;-88
2022/09/07 12:27:33;;;;;;;0.10;0.10;;;;;;;;;;6225848;22;20016;-92
2022/09/07 12:30:02;;;;;;;0.10;0.10;;;;;;;;;;6226484;22;20062;-90
2022/09/07 12:32:54;;;;;;;0.10;0.10;;;;;;;;;;6226036;22;20056;-90
2022/09/07 12:35:32;;;;;;;0.10;0.10;;;;;;;;;;6222416;22;20468;-91
2022/09/07 12:38:02;;;;;;;0.00;0.00;;;;;;;;;;6225546;22;20620;-89
2022/09/07 12:40:28;;;;;;;0.00;0.00;;;;;;;;;;6225436;22;20045;-87
2022/09/07 12:43:13;;;;;;;0.00;0.00;;;;;;;;;;6225545;22;20016;-87
2022/09/07 12:45:38;;;;;;;0.08;0.08;;;;;;;;;;6224647;22;20027;-87
2022/09/07 12:48:17;;;;;;;0.00;0.00;;;;;;;;;;6225060;22;20504;-87
2022/09/07 12:50:58;;;;;;;0.10;0.10;;;;;;;;;;6225278;22;20073;-89
2022/09/07 12:53:30;;;;;;;0.00;0.00;;;;;;;;;;6225777;22;20433;-89
2022/09/07 12:55:56;;;;;;;0.00;0.00;;;;;;;;;;6225592;22;20079;-89
2022/09/07 12:58:28;;;;;;;0.00;0.00;;;;;;;;;;6225596;22;20380;-87
2022/09/07 13:01:14;;;;;;;0.00;0.00;;;;;;;;;;6223620;22;20020;-87
2022/09/07 13:03:45;;;;;;;0.00;0.00;;;;;;;;;;6224306;22;20026;-86
2022/09/07 13:06:29;;;;;;;0.00;0.00;;;;;;;;;;6224023;22;20011;-87
2022/09/07 13:09:14;;;;;;;0.00;0.00;;;;;;;;;;6223243;22;20015;-87
2022/09/07 13:11:40;;;;;;;0.00;0.00;;;;;;;;;;6224192;22;20392;-87
2022/09/07 13:14:12;;;;;;;0.00;0.00;;;;;;;;;;6223992;22;20054;-87
2022/09/07 13:16:39;;;;;;;0.10;0.10;;;;;;;;;;6224990;22;20015;-88
2022/09/07 13:19:07;;;;;;;0.00;0.00;;;;;;;;;;6224091;22;20468;-87
2022/09/07 13:21:38;;;;;;;0.10;0.10;;;;;;;;;;6223709;22;20027;-87
2022/09/07 13:24:16;;;;;;;0.00;0.00;;;;;;;;;;6224500;22;20039;-87
2022/09/07 13:26:53;;;;;;;0.00;0.00;;;;;;;;;;6224078;22;20158;-88
2022/09/07 13:29:25;;;;;;;0.10;0.10;;;;;;;;;;6224255;22;20020;-89
2022/09/07 13:31:59;;;;;;;0.00;0.00;;;;;;;;;;6224823;22;20018;-88
2022/09/07 13:34:34;;;;;;;0.10;0.10;;;;;;;;;;6224751;22;20011;-88
2022/09/07 13:37:01;;;;;;;0.00;0.00;;;;;;;;;;6224698;22;20482;-88
2022/09/07 13:39:28;;;;;;;0.00;0.00;;;;;;;;;;6224230;22;20062;-88
2022/09/07 13:41:55;;;;;;;0.00;0.00;;;;;;;;;;6224217;22;20031;-88
2022/09/07 13:44:23;;;;;;;0.10;0.10;;;;;;;;;;6224283;22;20015;-88
2022/09/07 13:46:49;;;;;;;0.00;0.00;;;;;;;;;;6224614;22;20072;-88
2022/09/07 13:49:21;;;;;;;0.10;0.10;;;;;;;;;;6224815;22;20099;-89
2022/09/07 13:51:54;;;;;;;0.00;0.00;;;;;;;;;;6226104;22;20098;-91
2022/09/07 13:54:29;;;;;;;0.03;0.03;;;;;;;;;;6225013;22;20012;-90
2022/09/07 13:57:01;;;;;;;0.00;0.00;;;;;;;;;;6225929;22;20105;-92
2022/09/07 13:59:32;;;;;;;0.00;0.00;;;;;;;;;;6228950;22;20019;-91
2022/09/07 14:01:58;;;;;;;0.00;0.00;;;;;;;;;;6225545;22;20019;-91
2022/09/07 14:04:26;;;;;;;0.08;0.08;;;;;;;;;;6226238;22;20019;-91
2022/09/07 14:07:15;;;;;;;0.00;0.00;;;;;;;;;;6225789;22;20024;-91
2022/09/07 14:09:42;;;;;;;0.00;0.00;;;;;;;;;;6220756;22;20095;-91
2022/09/07 14:12:15;;;;;;;0.10;0.10;;;;;;;;;;6225798;22;20461;-91
2022/09/07 14:14:41;;;;;;;0.00;0.00;;;;;;;;;;6226107;22;20054;-90
2022/09/07 14:17:11;;;;;;;0.00;0.00;;;;;;;;;;6225255;22;20011;-91
2022/09/07 14:19:39;;;;;;;0.00;0.00;;;;;;;;;;6225522;22;20368;-91
2022/09/07 14:22:12;;;;;;;0.00;0.00;;;;;;;;;;6225068;22;20022;-91
2022/09/07 14:24:46;;;;;;;0.00;0.00;;;;;;;;;;6226601;22;20026;-91
2022/09/07 14:27:20;;;;;;;0.00;0.00;;;;;;;;;;6226137;22;20059;-90
2022/09/07 14:29:46;;;;;;;0.00;0.00;;;;;;;;;;6225121;22;20094;-91
2022/09/07 14:32:14;;;;;;;0.10;0.10;;;;;;;;;;6224895;22;20016;-90
2022/09/07 14:34:42;;;;;;;0.00;0.00;;;;;;;;;;6225167;22;20099;-91
2022/09/07 14:37:11;;;;;;;0.00;0.00;;;;;;;;;;6225293;22;20011;-91
2022/09/07 14:39:40;;;;;;;0.00;0.00;;;;;;;;;;6224470;22;20122;-91
2022/09/07 14:42:06;;;;;;;0.05;0.05;;;;;;;;;;6225381;22;20025;-91
2022/09/07 14:44:38;;;;;;;0.00;0.00;;;;;;;;;;6225333;22;20399;-91
2022/09/07 14:47:11;;;;;;;0.03;0.03;;;;;;;;;;6224826;22;20019;-91
2022/09/07 14:49:37;;;;;;;0.00;0.00;;;;;;;;;;6224747;22;20015;-91
2022/09/07 14:52:03;;;;;;;0.10;0.10;;;;;;;;;;6225032;22;20444;-90
2022/09/07 14:54:31;;;;;;;0.08;0.08;;;;;;;;;;6225470;22;20511;-91
2022/09/07 14:57:17;;;;;;;0.00;0.00;;;;;;;;;;6225079;22;20102;-91
2022/09/07 14:59:45;;;;;;;0.00;0.00;;;;;;;;;;6247889;22;20071;-91